createdAt,value
2022-12-29T00:00:26.751Z,99650.34
2022-12-29T00:03:13.889Z,99654.90
2022-12-29T00:05:41.020Z,99653.39
2022-12-29T00:08:08.115Z,99654.89
2022-12-29T00:10:35.162Z,99656.18
2022-12-29T00:13:21.157Z,99658.86
2022-12-29T00:15:48.286Z,99661.52
2022-12-29T00:18:15.385Z,99658.74
2022-12-29T00:21:01.142Z,99661.22
2022-12-29T00:23:46.826Z,99651.40
2022-12-29T00:26:34.587Z,99648.63
2022-12-29T00:29:20.762Z,99649.70
2022-12-29T00:32:08.097Z,99648.35
2022-12-29T00:34:53.869Z,99646.45
2022-12-29T00:37:41.114Z,99648.96
2022-12-29T00:40:27.365Z,99646.39
2022-12-29T00:43:13.129Z,99646.52
2022-12-29T00:45:42.783Z,99643.64
2022-12-29T00:48:10.156Z,99640.83
2022-12-29T00:50:37.341Z,99639.64
2022-12-29T00:53:04.450Z,99636.57
2022-12-29T00:55:31.587Z,99631.24
2022-12-29T00:57:59.462Z,99630.17
2022-12-29T01:00:26.497Z,99627.34
2022-12-29T01:02:53.778Z,99625.80
2022-12-29T01:05:21.028Z,99623.34
2022-12-29T01:07:48.192Z,99621.19
2022-12-29T01:10:16.255Z,99619.58
2022-12-29T01:12:43.360Z,99618.20
2022-12-29T01:15:13.812Z,99616.70
2022-12-29T01:17:42.449Z,99616.90
2022-12-29T01:20:10.499Z,99616.13
2022-12-29T01:22:37.900Z,99609.27
2022-12-29T01:25:06.255Z,99606.75
2022-12-29T01:27:34.494Z,99603.55
2022-12-29T01:30:01.680Z,99604.69
2022-12-29T01:32:28.962Z,99600.21
2022-12-29T01:34:56.006Z,99598.64
2022-12-29T01:37:23.059Z,99592.13
2022-12-29T01:39:50.182Z,99584.02
2022-12-29T01:42:19.155Z,99585.17
2022-12-29T01:44:49.395Z,99587.16
2022-12-29T01:47:41.155Z,99587.13
2022-12-29T01:50:18.582Z,99588.96
2022-12-29T01:52:54.780Z,99591.20
2022-12-29T01:55:22.494Z,99585.86
2022-12-29T01:57:53.543Z,99586.40
2022-12-29T02:00:20.717Z,99587.66
2022-12-29T02:02:53.010Z,99583.77
2022-12-29T02:05:34.942Z,99582.25
2022-12-29T02:08:02.590Z,99580.54
2022-12-29T02:10:32.764Z,99578.71
2022-12-29T02:13:01.033Z,99584.86
2022-12-29T02:15:35.351Z,99591.72
2022-12-29T02:18:15.335Z,99587.91
2022-12-29T02:20:48.690Z,99588.23
2022-12-29T02:24:00.437Z,99583.05
2022-12-29T02:26:39.893Z,99585.27
2022-12-29T02:29:29.968Z,99582.19
2022-12-29T02:31:57.367Z,99581.06
2022-12-29T02:34:43.127Z,99582.78
2022-12-29T02:37:38.617Z,99582.73
2022-12-29T02:40:10.861Z,99574.60
2022-12-29T02:42:58.673Z,99572.38
2022-12-29T02:45:31.628Z,99569.12
2022-12-29T02:48:35.849Z,99567.42
2022-12-29T02:51:04.428Z,99563.20
2022-12-29T02:53:53.197Z,99562.55
2022-12-29T02:56:20.811Z,99556.67
2022-12-29T02:58:48.233Z,99557.66
2022-12-29T03:01:27.534Z,99556.11
2022-12-29T03:04:32.712Z,99551.71
2022-12-29T03:07:20.701Z,99545.70
2022-12-29T03:09:56.939Z,99543.74
2022-12-29T03:12:54.999Z,99527.48
2022-12-29T03:15:50.026Z,99519.29
2022-12-29T03:18:25.720Z,99530.15
2022-12-29T03:20:55.071Z,99528.24
2022-12-29T03:23:24.578Z,99527.82
2022-12-29T03:25:59.148Z,99528.02
2022-12-29T03:28:37.505Z,99525.59
2022-12-29T03:31:09.137Z,99527.57
2022-12-29T03:33:39.229Z,99532.66
2022-12-29T03:36:11.668Z,99526.02
2022-12-29T03:39:12.832Z,99521.94
2022-12-29T03:41:44.234Z,99522.18
2022-12-29T03:44:12.744Z,99519.33
2022-12-29T03:46:40.287Z,99518.77
2022-12-29T03:49:07.995Z,99509.70
2022-12-29T03:51:35.274Z,99506.84
2022-12-29T03:54:04.008Z,99505.23
2022-12-29T03:56:31.299Z,99509.48
2022-12-29T03:58:58.829Z,99511.89
2022-12-29T04:01:32.299Z,99507.88
2022-12-29T04:03:59.606Z,99502.55
2022-12-29T04:06:26.787Z,99501.19
2022-12-29T04:09:00.365Z,99491.90
2022-12-29T04:11:33.025Z,99492.05
2022-12-29T04:14:01.770Z,99496.55
2022-12-29T04:16:30.952Z,99493.09
2022-12-29T04:18:58.214Z,99497.13
2022-12-29T04:21:26.157Z,99499.89
2022-12-29T04:23:53.333Z,99497.34
2022-12-29T04:26:20.601Z,99494.75
2022-12-29T04:29:06.239Z,99495.47
2022-12-29T04:31:59.292Z,99491.51
2022-12-29T04:34:28.899Z,99483.63
2022-12-29T04:36:56.151Z,99485.92
2022-12-29T04:39:23.361Z,99480.61
2022-12-29T04:41:50.540Z,99481.73
2022-12-29T04:44:20.883Z,99480.63
2022-12-29T04:47:03.159Z,99484.66
2022-12-29T04:49:41.370Z,99481.00
2022-12-29T04:52:22.204Z,99480.23
2022-12-29T04:54:49.625Z,99478.87
2022-12-29T04:57:20.154Z,99479.80
2022-12-29T04:59:51.451Z,99477.08
2022-12-29T05:02:19.113Z,99475.98
2022-12-29T05:04:47.854Z,99469.30
2022-12-29T05:07:15.343Z,99468.19
2022-12-29T05:09:44.016Z,99463.58
2022-12-29T05:12:11.360Z,99461.98
2022-12-29T05:14:46.591Z,99458.28
2022-12-29T05:17:13.735Z,99461.45
2022-12-29T05:19:41.327Z,99463.05
2022-12-29T05:22:08.697Z,99462.58
2022-12-29T05:24:35.783Z,99461.35
2022-12-29T05:27:03.035Z,99453.98
2022-12-29T05:29:55.202Z,99456.61
2022-12-29T05:32:22.312Z,99451.98
2022-12-29T05:34:49.423Z,99452.48
2022-12-29T05:37:17.828Z,99446.11
2022-12-29T05:39:45.439Z,99444.69
2022-12-29T05:42:13.492Z,99437.35
2022-12-29T05:44:54.961Z,99438.83
2022-12-29T05:47:35.867Z,99447.67
2022-12-29T05:50:18.254Z,99446.01
2022-12-29T05:53:18.311Z,99446.14
2022-12-29T05:55:49.071Z,99444.94
2022-12-29T05:58:17.813Z,99446.23
2022-12-29T06:00:45.085Z,99434.90
2022-12-29T06:03:12.585Z,99438.94
2022-12-29T06:05:39.768Z,99442.25
2022-12-29T06:08:07.208Z,99444.85
2022-12-29T06:10:35.127Z,99446.05
2022-12-29T06:13:06.587Z,99441.29
2022-12-29T06:15:37.168Z,99443.87
2022-12-29T06:18:06.610Z,99436.52
2022-12-29T06:20:34.808Z,99428.45
2022-12-29T06:23:04.859Z,99422.59
2022-12-29T06:25:33.364Z,99421.78
2022-12-29T06:28:01.473Z,99409.73
2022-12-29T06:30:28.932Z,99410.27
2022-12-29T06:32:56.262Z,99398.23
2022-12-29T06:35:24.820Z,99398.06
2022-12-29T06:37:52.920Z,99387.04
2022-12-29T06:40:21.171Z,99380.64
2022-12-29T06:43:10.397Z,99374.61
2022-12-29T06:45:44.589Z,99381.67
2022-12-29T06:48:11.803Z,99386.98
2022-12-29T06:50:39.007Z,99386.42
2022-12-29T06:53:06.009Z,99380.33
2022-12-29T06:55:33.300Z,99381.79
2022-12-29T06:58:01.483Z,99379.90
2022-12-29T07:00:28.970Z,99388.55
2022-12-29T07:02:57.568Z,99396.13
2022-12-29T07:05:27.953Z,99396.70
2022-12-29T07:07:57.281Z,99400.77
2022-12-29T07:10:24.380Z,99399.42
2022-12-29T07:12:51.405Z,99400.09
2022-12-29T07:15:19.152Z,99399.52
2022-12-29T07:17:46.315Z,99397.77
2022-12-29T07:20:13.527Z,99396.52
2022-12-29T07:22:40.617Z,99389.86
2022-12-29T07:25:08.146Z,99378.80
2022-12-29T07:27:35.336Z,99378.80
2022-12-29T07:30:02.608Z,99373.35
2022-12-29T07:32:33.036Z,99378.63
2022-12-29T07:35:00.165Z,99378.14
2022-12-29T07:37:27.340Z,99381.48
2022-12-29T07:39:54.563Z,99385.13
2022-12-29T07:42:21.763Z,99390.89
2022-12-29T07:44:52.123Z,99404.59
2022-12-29T07:47:28.428Z,99408.92
2022-12-29T07:49:55.583Z,99419.50
2022-12-29T07:52:22.681Z,99423.42
2022-12-29T07:54:49.932Z,99430.81
2022-12-29T07:57:17.034Z,99422.48
2022-12-29T07:59:44.544Z,99414.38
2022-12-29T08:02:12.866Z,99415.21
2022-12-29T08:04:40.181Z,99414.15
2022-12-29T08:07:07.324Z,99414.94
2022-12-29T08:09:34.382Z,99410.05
2022-12-29T08:12:01.509Z,99407.48
2022-12-29T08:14:28.627Z,99399.19
2022-12-29T08:16:55.852Z,99391.00
2022-12-29T08:19:22.919Z,99392.89
2022-12-29T08:21:51.314Z,99403.49
2022-12-29T08:24:18.576Z,99401.67
2022-12-29T08:26:45.811Z,99405.88
2022-12-29T08:29:12.983Z,99407.54
2022-12-29T08:31:40.120Z,99411.39
2022-12-29T08:34:07.495Z,99410.98
2022-12-29T08:36:34.584Z,99416.19
2022-12-29T08:39:01.779Z,99419.02
2022-12-29T08:41:29.025Z,99419.58
2022-12-29T08:43:56.220Z,99425.08
2022-12-29T08:46:23.676Z,99423.96
2022-12-29T08:48:50.908Z,99425.45
2022-12-29T08:51:22.803Z,99421.92
2022-12-29T08:53:51.888Z,99409.27
2022-12-29T08:56:19.478Z,99404.70
2022-12-29T08:58:49.200Z,99393.52
2022-12-29T09:01:18.410Z,99392.09
2022-12-29T09:04:13.659Z,99403.02
2022-12-29T09:06:39.690Z,99405.50
2022-12-29T09:09:07.763Z,99402.14
2022-12-29T09:11:34.934Z,99400.45
2022-12-29T09:14:02.013Z,99389.83
2022-12-29T09:16:29.164Z,99384.86
2022-12-29T09:18:56.308Z,99381.58
2022-12-29T09:21:23.359Z,99382.21
2022-12-29T09:23:50.446Z,99383.75
2022-12-29T09:26:17.639Z,99385.30
2022-12-29T09:28:45.460Z,99380.66
2022-12-29T09:31:12.938Z,99376.70
2022-12-29T09:33:40.097Z,99379.39
2022-12-29T09:36:07.618Z,99381.27
2022-12-29T09:38:34.696Z,99389.15
2022-12-29T09:41:18.828Z,99386.59
2022-12-29T09:43:48.569Z,99382.33
2022-12-29T09:46:31.223Z,99386.04
2022-12-29T09:49:07.284Z,99379.68
2022-12-29T09:51:38.073Z,99378.67
2022-12-29T09:54:31.233Z,99372.45
2022-12-29T09:56:58.711Z,99367.20
2022-12-29T09:59:40.635Z,99367.58
2022-12-29T10:02:24.684Z,99361.66
2022-12-29T10:04:52.528Z,99359.79
2022-12-29T10:07:42.592Z,99359.52
2022-12-29T10:10:21.009Z,99362.16
2022-12-29T10:12:51.278Z,99369.80
2022-12-29T10:15:21.441Z,99360.91
2022-12-29T10:18:06.130Z,99348.78
2022-12-29T10:20:59.486Z,99353.90
2022-12-29T10:23:44.851Z,99360.23
2022-12-29T10:26:17.225Z,99347.19
2022-12-29T10:29:12.662Z,99338.25
2022-12-29T10:31:45.476Z,99347.23
2022-12-29T10:34:36.096Z,99349.02
2022-12-29T10:37:18.632Z,99353.86
2022-12-29T10:39:50.803Z,99343.19
2022-12-29T10:42:25.834Z,99337.10
2022-12-29T10:44:54.397Z,99335.04
2022-12-29T10:47:26.832Z,99336.29
2022-12-29T10:49:55.049Z,99339.34
2022-12-29T10:52:24.445Z,99340.87
2022-12-29T10:55:00.726Z,99340.20
2022-12-29T10:57:32.148Z,99338.88
2022-12-29T10:59:59.703Z,99342.45
2022-12-29T11:02:44.492Z,99342.29
2022-12-29T11:05:18.118Z,99336.41
2022-12-29T11:07:49.233Z,99329.55
2022-12-29T11:10:37.090Z,99330.20
2022-12-29T11:13:26.112Z,99326.77
2022-12-29T11:15:53.568Z,99325.88
2022-12-29T11:18:20.708Z,99327.59
2022-12-29T11:20:48.327Z,99327.10
2022-12-29T11:23:43.050Z,99329.35
2022-12-29T11:26:19.118Z,99326.23
2022-12-29T11:29:17.823Z,99323.50
2022-12-29T11:31:47.847Z,99328.02
2022-12-29T11:34:37.087Z,99327.84
2022-12-29T11:37:35.584Z,99329.73
2022-12-29T11:40:20.823Z,99329.80
2022-12-29T11:42:58.050Z,99322.11
2022-12-29T11:45:28.152Z,99324.14
2022-12-29T11:48:00.715Z,99321.59
2022-12-29T11:50:32.090Z,99322.19
2022-12-29T11:53:04.459Z,99319.02
2022-12-29T11:55:32.729Z,99314.77
2022-12-29T11:58:03.719Z,99308.41
2022-12-29T12:00:36.095Z,99308.82
2022-12-29T12:03:06.120Z,99310.17
2022-12-29T12:05:53.773Z,99310.17
2022-12-29T12:08:54.456Z,99309.15
2022-12-29T12:11:38.117Z,99308.55
2022-12-29T12:14:13.740Z,99311.52
2022-12-29T12:17:06.220Z,99305.36
2022-12-29T12:19:42.835Z,99300.92
2022-12-29T12:22:22.104Z,99295.33
2022-12-29T12:25:28.645Z,99290.27
2022-12-29T12:28:03.115Z,99292.73
2022-12-29T12:30:40.215Z,99288.30
2022-12-29T12:33:15.310Z,99286.64
2022-12-29T12:35:50.864Z,99282.39
2022-12-29T12:38:40.715Z,99275.98
2022-12-29T12:41:26.540Z,99276.23
2022-12-29T12:44:08.298Z,99273.27
2022-12-29T12:46:54.412Z,99266.70
2022-12-29T12:49:33.645Z,99267.85
2022-12-29T12:52:05.284Z,99265.44
2022-12-29T12:54:41.573Z,99273.70
2022-12-29T12:57:36.220Z,99271.55
2022-12-29T13:00:24.449Z,99280.77
2022-12-29T13:03:13.312Z,99277.86
2022-12-29T13:05:56.252Z,99280.33
2022-12-29T13:08:46.354Z,99277.13
2022-12-29T13:11:16.355Z,99279.63
2022-12-29T13:14:01.503Z,99278.23
2022-12-29T13:16:49.893Z,99273.27
2022-12-29T13:19:28.310Z,99275.86
2022-12-29T13:22:18.755Z,99272.33
2022-12-29T13:24:57.995Z,99275.38
2022-12-29T13:27:44.982Z,99277.70
2022-12-29T13:30:23.656Z,99280.35
2022-12-29T13:32:56.752Z,99279.78
2022-12-29T13:35:51.936Z,99280.64
2022-12-29T13:38:37.509Z,99288.61
2022-12-29T13:41:17.258Z,99289.70
2022-12-29T13:43:47.917Z,99293.33
2022-12-29T13:46:21.772Z,99291.39
2022-12-29T13:49:01.798Z,99289.54
2022-12-29T13:51:30.317Z,99295.27
2022-12-29T13:54:25.795Z,99302.26
2022-12-29T13:57:04.954Z,99300.08
2022-12-29T13:59:42.836Z,99303.88
2022-12-29T14:02:39.391Z,99307.00
2022-12-29T14:05:30.829Z,99308.79
2022-12-29T14:08:00.861Z,99304.73
2022-12-29T14:10:50.979Z,99299.76
2022-12-29T14:13:19.785Z,99298.42
2022-12-29T14:16:00.524Z,99299.52
2022-12-29T14:18:30.727Z,99307.46
2022-12-29T14:21:19.005Z,99311.00
2022-12-29T14:23:51.654Z,99310.83
2022-12-29T14:26:31.059Z,99312.23
2022-12-29T14:29:18.364Z,99314.95
2022-12-29T14:31:45.495Z,99312.95
2022-12-29T14:34:12.645Z,99312.36
2022-12-29T14:36:58.485Z,99313.09
2022-12-29T14:39:47.056Z,99309.27
2022-12-29T14:42:18.640Z,99312.19
2022-12-29T14:45:15.071Z,99312.58
2022-12-29T14:47:46.992Z,99312.34
2022-12-29T14:50:23.258Z,99307.98
2022-12-29T14:53:04.579Z,99312.83
2022-12-29T14:55:42.435Z,99315.81
2022-12-29T14:58:32.200Z,99310.30
2022-12-29T15:01:00.872Z,99305.76
2022-12-29T15:03:37.482Z,99308.13
2022-12-29T15:06:12.600Z,99312.06
2022-12-29T15:08:47.600Z,99316.03
2022-12-29T15:11:22.219Z,99321.33
2022-12-29T15:13:50.320Z,99320.78
2022-12-29T15:16:30.535Z,99316.29
2022-12-29T15:18:58.316Z,99313.95
2022-12-29T15:21:28.974Z,99313.23
2022-12-29T15:23:56.303Z,99312.19
2022-12-29T15:26:23.914Z,99311.60
2022-12-29T15:28:53.346Z,99308.84
2022-12-29T15:31:30.216Z,99307.91
2022-12-29T15:34:12.815Z,99307.31
2022-12-29T15:36:41.793Z,99304.29
2022-12-29T15:39:32.187Z,99305.66
2022-12-29T15:42:33.811Z,99307.45
2022-12-29T15:45:11.813Z,99304.35
2022-12-29T15:47:40.559Z,99303.99
2022-12-29T15:50:31.355Z,99303.14
2022-12-29T15:52:59.351Z,99303.77
2022-12-29T15:55:32.977Z,99296.58
2022-12-29T15:58:02.125Z,99294.73
2022-12-29T16:00:32.143Z,99289.95
2022-12-29T16:03:02.588Z,99287.26
2022-12-29T16:05:35.385Z,99300.23
2022-12-29T16:08:03.960Z,99301.79
2022-12-29T16:10:41.238Z,99301.39
2022-12-29T16:13:40.491Z,99310.83
2022-12-29T16:16:17.933Z,99309.80
2022-12-29T16:18:45.708Z,99311.63
2022-12-29T16:21:23.692Z,99311.60
2022-12-29T16:23:53.670Z,99310.39
2022-12-29T16:26:23.700Z,99309.84
2022-12-29T16:29:03.115Z,99305.89
2022-12-29T16:31:33.187Z,99306.12
2022-12-29T16:34:12.350Z,99306.14
2022-12-29T16:36:55.311Z,99310.38
2022-12-29T16:39:30.245Z,99312.00
2022-12-29T16:41:57.760Z,99313.10
2022-12-29T16:44:28.284Z,99314.85
2022-12-29T16:47:03.684Z,99316.84
2022-12-29T16:49:33.964Z,99315.19
2022-12-29T16:52:01.697Z,99316.70
2022-12-29T16:54:36.532Z,99313.70
2022-12-29T16:57:05.014Z,99312.86
2022-12-29T16:59:35.764Z,99314.38
2022-12-29T17:02:13.774Z,99323.04
2022-12-29T17:04:41.036Z,99328.11
2022-12-29T17:07:19.873Z,99328.69
2022-12-29T17:09:46.943Z,99329.89
2022-12-29T17:12:31.507Z,99332.55
2022-12-29T17:15:13.581Z,99335.86
2022-12-29T17:17:46.852Z,99342.23
2022-12-29T17:20:27.490Z,99342.44
2022-12-29T17:22:54.694Z,99339.80
2022-12-29T17:25:27.613Z,99339.02
2022-12-29T17:28:02.237Z,99337.61
2022-12-29T17:30:34.039Z,99342.23
2022-12-29T17:33:04.524Z,99339.41
2022-12-29T17:35:32.134Z,99342.25
2022-12-29T17:37:59.233Z,99335.57
2022-12-29T17:40:32.426Z,99339.32
2022-12-29T17:43:00.552Z,99333.99
2022-12-29T17:45:33.020Z,99329.30
2022-12-29T17:48:01.947Z,99326.98
2022-12-29T17:50:31.732Z,99332.45
2022-12-29T17:53:03.417Z,99338.86
2022-12-29T17:55:37.307Z,99339.38
2022-12-29T17:58:20.105Z,99334.77
2022-12-29T18:00:53.015Z,99338.68
2022-12-29T18:03:26.641Z,99337.19
2022-12-29T18:05:54.127Z,99341.58
2022-12-29T18:08:22.010Z,99345.75
2022-12-29T18:10:51.705Z,99347.52
2022-12-29T18:13:27.140Z,99345.53
2022-12-29T18:15:55.922Z,99349.55
2022-12-29T18:18:25.427Z,99353.66
2022-12-29T18:20:59.047Z,99351.36
2022-12-29T18:23:27.584Z,99352.63
2022-12-29T18:26:04.021Z,99351.86
2022-12-29T18:28:31.600Z,99352.86
2022-12-29T18:31:01.348Z,99354.18
2022-12-29T18:33:30.032Z,99354.58
2022-12-29T18:35:59.871Z,99351.98
2022-12-29T18:38:27.788Z,99348.77
2022-12-29T18:40:55.578Z,99352.83
2022-12-29T18:43:23.274Z,99353.86
2022-12-29T18:45:50.397Z,99352.59
2022-12-29T18:48:19.175Z,99354.91
2022-12-29T18:50:49.166Z,99357.30
2022-12-29T18:53:18.322Z,99348.77
2022-12-29T18:55:45.477Z,99352.50
2022-12-29T18:58:13.007Z,99356.02
2022-12-29T19:00:40.759Z,99355.21
2022-12-29T19:03:08.040Z,99361.38
2022-12-29T19:05:39.912Z,99357.29
2022-12-29T19:08:08.344Z,99354.24
2022-12-29T19:10:36.337Z,99354.06
2022-12-29T19:13:03.992Z,99358.94
2022-12-29T19:15:38.020Z,99360.56
2022-12-29T19:20:56.905Z,99357.61
2022-12-29T19:23:26.373Z,99354.53
2022-12-29T19:25:56.619Z,99355.75
2022-12-29T19:28:26.981Z,99354.77
2022-12-29T19:30:57.450Z,99351.83
2022-12-29T19:33:24.759Z,99361.01
2022-12-29T19:35:52.684Z,99359.84
2022-12-29T19:38:20.405Z,99360.44
2022-12-29T19:40:50.505Z,99356.39
2022-12-29T19:43:18.684Z,99361.78
2022-12-29T19:45:45.957Z,99362.20
2022-12-29T19:48:18.655Z,99365.86
2022-12-29T19:50:46.284Z,99362.00
2022-12-29T19:53:14.040Z,99367.80
2022-12-29T19:55:45.572Z,99358.22
2022-12-29T19:58:13.561Z,99354.38
2022-12-29T20:00:42.531Z,99352.30
2022-12-29T20:03:10.410Z,99355.35
2022-12-29T20:05:38.718Z,99358.86
2022-12-29T20:08:06.450Z,99357.82
2022-12-29T20:10:34.001Z,99365.23
2022-12-29T20:13:01.313Z,99369.72
2022-12-29T20:15:28.356Z,99369.80
2022-12-29T20:18:13.224Z,99371.52
2022-12-29T20:20:41.551Z,99379.59
2022-12-29T20:23:08.669Z,99375.08
2022-12-29T20:25:51.121Z,99378.27
2022-12-29T20:28:18.281Z,99377.95
2022-12-29T20:30:45.333Z,99378.81
2022-12-29T20:33:12.610Z,99381.80
2022-12-29T20:35:39.748Z,99384.37
2022-12-29T20:38:06.884Z,99381.30
2022-12-29T20:40:40.674Z,99380.97
2022-12-29T20:43:11.449Z,99379.38
2022-12-29T20:45:38.672Z,99381.88
2022-12-29T20:48:05.828Z,99387.48
2022-12-29T20:50:32.933Z,99386.56
2022-12-29T20:53:00.182Z,99387.15
2022-12-29T20:55:27.340Z,99385.60
2022-12-29T21:00:41.599Z,99385.90
2022-12-29T21:03:08.838Z,99385.22
2022-12-29T21:05:38.129Z,99389.85
2022-12-29T21:08:05.576Z,99389.69
2022-12-29T21:10:32.762Z,99391.27
2022-12-29T21:13:01.632Z,99389.70
2022-12-29T21:15:30.135Z,99397.20
2022-12-29T21:17:57.260Z,99399.57
2022-12-29T21:20:32.069Z,99401.73
2022-12-29T21:23:01.100Z,99402.95
2022-12-29T21:25:37.350Z,99407.34
2022-12-29T21:28:08.775Z,99409.15
2022-12-29T21:30:36.233Z,99406.71
2022-12-29T21:33:04.048Z,99405.77
2022-12-29T21:35:34.739Z,99413.09
2022-12-29T21:38:01.886Z,99412.80
2022-12-29T21:40:29.010Z,99414.52
2022-12-29T21:42:56.113Z,99413.91
2022-12-29T21:45:25.837Z,99416.78
2022-12-29T21:48:13.097Z,99416.52
2022-12-29T21:51:01.446Z,99417.15
2022-12-29T21:53:40.238Z,99414.67
2022-12-29T21:56:21.423Z,99418.63
2022-12-29T21:59:10.383Z,99416.11
2022-12-29T22:01:57.400Z,99419.02
2022-12-29T22:04:44.807Z,99419.20
2022-12-29T22:07:31.623Z,99421.98
2022-12-29T22:10:17.492Z,99425.69
2022-12-29T22:13:03.451Z,99428.39
2022-12-29T22:15:31.586Z,99429.21
2022-12-29T22:17:59.339Z,99429.25
2022-12-29T22:20:29.916Z,99426.25
2022-12-29T22:22:57.620Z,99432.25
2022-12-29T22:25:25.311Z,99430.66
2022-12-29T22:27:58.531Z,99435.19
2022-12-29T22:30:27.867Z,99430.20
2022-12-29T22:32:57.505Z,99435.90
2022-12-29T22:35:25.155Z,99439.20
2022-12-29T22:37:52.302Z,99441.61
2022-12-29T22:40:20.296Z,99445.17
2022-12-29T22:42:47.507Z,99449.86
2022-12-29T22:45:14.852Z,99451.71
2022-12-29T22:47:41.990Z,99454.13
2022-12-29T22:50:09.686Z,99461.85
2022-12-29T22:52:37.217Z,99466.73
2022-12-29T22:55:07.180Z,99467.55
2022-12-29T22:57:35.609Z,99474.23
2022-12-29T23:00:08.418Z,99466.42
2022-12-29T23:02:35.891Z,99469.56
2022-12-29T23:05:05.095Z,99468.11
2022-12-29T23:07:34.641Z,99465.31
2022-12-29T23:10:03.175Z,99464.59
2022-12-29T23:12:31.311Z,99464.63
2022-12-29T23:14:58.378Z,99467.59
2022-12-29T23:17:25.510Z,99472.98
2022-12-29T23:19:52.725Z,99471.85
2022-12-29T23:22:19.884Z,99469.91
2022-12-29T23:24:46.898Z,99469.59
2022-12-29T23:27:14.111Z,99469.61
2022-12-29T23:29:41.325Z,99469.33
2022-12-29T23:32:08.482Z,99467.59
2022-12-29T23:34:35.549Z,99463.58
2022-12-29T23:37:02.826Z,99466.69
2022-12-29T23:39:30.060Z,99466.80
2022-12-29T23:41:57.827Z,99466.29
2022-12-29T23:44:24.896Z,99466.49
2022-12-29T23:46:52.129Z,99461.73
2022-12-29T23:49:19.291Z,99465.80
2022-12-29T23:51:46.587Z,99460.59
2022-12-29T23:54:13.649Z,99461.10
2022-12-29T23:56:40.724Z,99458.58
2022-12-29T23:59:07.874Z,99460.84
